sensor_id;sensor_type;location;lat;lon;timestamp;P1;durP1;ratioP1;P2;durP2;ratioP2
19285;SDS011;9776;50.798;6.430;2023-09-18T00:01:02;8.32;;;3.88;;
19285;SDS011;9776;50.798;6.430;2023-09-18T00:03:29;5.68;;;3.80;;
19285;SDS011;9776;50.798;6.430;2023-09-18T00:05:55;7.78;;;3.95;;
19285;SDS011;9776;50.798;6.430;2023-09-18T00:08:22;6.90;;;3.72;;
19285;SDS011;9776;50.798;6.430;2023-09-18T00:10:49;7.20;;;4.00;;
19285;SDS011;9776;50.798;6.430;2023-09-18T00:13:18;7.25;;;3.95;;
19285;SDS011;9776;50.798;6.430;2023-09-18T00:15:45;5.38;;;3.95;;
19285;SDS011;9776;50.798;6.430;2023-09-18T00:18:15;6.45;;;4.10;;
19285;SDS011;9776;50.798;6.430;2023-09-18T00:20:42;7.47;;;4.35;;
19285;SDS011;9776;50.798;6.430;2023-09-18T00:23:11;5.10;;;3.80;;
19285;SDS011;9776;50.798;6.430;2023-09-18T00:25:37;6.10;;;3.72;;
19285;SDS011;9776;50.798;6.430;2023-09-18T00:28:06;7.22;;;4.43;;
19285;SDS011;9776;50.798;6.430;2023-09-18T00:30:32;5.80;;;3.92;;
19285;SDS011;9776;50.798;6.430;2023-09-18T00:32:59;5.78;;;3.53;;
19285;SDS011;9776;50.798;6.430;2023-09-18T00:35:27;4.90;;;3.58;;
19285;SDS011;9776;50.798;6.430;2023-09-18T00:37:54;7.47;;;4.20;;
19285;SDS011;9776;50.798;6.430;2023-09-18T00:40:21;6.82;;;4.05;;
19285;SDS011;9776;50.798;6.430;2023-09-18T00:42:47;6.35;;;3.67;;
19285;SDS011;9776;50.798;6.430;2023-09-18T00:45:14;6.28;;;3.90;;
19285;SDS011;9776;50.798;6.430;2023-09-18T00:47:41;8.88;;;4.10;;
19285;SDS011;9776;50.798;6.430;2023-09-18T00:50:08;7.68;;;3.90;;
19285;SDS011;9776;50.798;6.430;2023-09-18T00:52:38;5.45;;;3.85;;
19285;SDS011;9776;50.798;6.430;2023-09-18T00:55:06;5.40;;;4.07;;
19285;SDS011;9776;50.798;6.430;2023-09-18T00:57:34;7.28;;;3.95;;
19285;SDS011;9776;50.798;6.430;2023-09-18T01:00:01;4.93;;;3.60;;
19285;SDS011;9776;50.798;6.430;2023-09-18T01:02:29;7.03;;;3.85;;
19285;SDS011;9776;50.798;6.430;2023-09-18T01:04:56;7.55;;;3.92;;
19285;SDS011;9776;50.798;6.430;2023-09-18T01:07:22;7.97;;;3.60;;
19285;SDS011;9776;50.798;6.430;2023-09-18T01:09:50;5.30;;;3.42;;
19285;SDS011;9776;50.798;6.430;2023-09-18T01:12:19;6.15;;;3.15;;
19285;SDS011;9776;50.798;6.430;2023-09-18T01:14:50;5.30;;;3.60;;
19285;SDS011;9776;50.798;6.430;2023-09-18T01:17:27;8.57;;;3.38;;
19285;SDS011;9776;50.798;6.430;2023-09-18T01:19:56;5.85;;;4.30;;
19285;SDS011;9776;50.798;6.430;2023-09-18T01:22:23;7.80;;;4.22;;
19285;SDS011;9776;50.798;6.430;2023-09-18T01:24:51;7.93;;;3.55;;
19285;SDS011;9776;50.798;6.430;2023-09-18T01:27:18;6.25;;;3.05;;
19285;SDS011;9776;50.798;6.430;2023-09-18T01:29:45;6.57;;;3.80;;
19285;SDS011;9776;50.798;6.430;2023-09-18T01:32:12;6.30;;;3.65;;
19285;SDS011;9776;50.798;6.430;2023-09-18T01:34:39;6.07;;;3.50;;
19285;SDS011;9776;50.798;6.430;2023-09-18T01:37:09;4.47;;;3.53;;
19285;SDS011;9776;50.798;6.430;2023-09-18T01:39:36;7.07;;;3.80;;
19285;SDS011;9776;50.798;6.430;2023-09-18T01:42:06;6.85;;;3.80;;
19285;SDS011;9776;50.798;6.430;2023-09-18T01:44:34;5.20;;;3.90;;
19285;SDS011;9776;50.798;6.430;2023-09-18T01:47:02;7.75;;;3.90;;
19285;SDS011;9776;50.798;6.430;2023-09-18T01:49:31;6.95;;;3.90;;
19285;SDS011;9776;50.798;6.430;2023-09-18T01:51:59;6.93;;;3.83;;
19285;SDS011;9776;50.798;6.430;2023-09-18T01:54:26;8.30;;;3.42;;
19285;SDS011;9776;50.798;6.430;2023-09-18T01:56:53;8.27;;;3.85;;
19285;SDS011;9776;50.798;6.430;2023-09-18T01:59:21;6.05;;;3.50;;
19285;SDS011;9776;50.798;6.430;2023-09-18T02:01:48;7.75;;;4.15;;
19285;SDS011;9776;50.798;6.430;2023-09-18T02:04:15;5.82;;;3.63;;
19285;SDS011;9776;50.798;6.430;2023-09-18T02:06:42;7.43;;;4.13;;
19285;SDS011;9776;50.798;6.430;2023-09-18T02:09:08;9.88;;;3.90;;
19285;SDS011;9776;50.798;6.430;2023-09-18T02:11:36;7.18;;;4.00;;
19285;SDS011;9776;50.798;6.430;2023-09-18T02:14:04;7.47;;;3.92;;
19285;SDS011;9776;50.798;6.430;2023-09-18T02:16:32;6.20;;;3.38;;
19285;SDS011;9776;50.798;6.430;2023-09-18T02:18:59;5.53;;;3.63;;
19285;SDS011;9776;50.798;6.430;2023-09-18T02:21:26;7.80;;;3.80;;
19285;SDS011;9776;50.798;6.430;2023-09-18T02:23:52;5.60;;;3.30;;
19285;SDS011;9776;50.798;6.430;2023-09-18T02:26:20;7.15;;;3.58;;
19285;SDS011;9776;50.798;6.430;2023-09-18T02:28:47;6.45;;;3.28;;
19285;SDS011;9776;50.798;6.430;2023-09-18T02:31:14;8.15;;;3.13;;
19285;SDS011;9776;50.798;6.430;2023-09-18T02:33:42;7.13;;;3.05;;
19285;SDS011;9776;50.798;6.430;2023-09-18T02:36:09;6.07;;;2.90;;
19285;SDS011;9776;50.798;6.430;2023-09-18T02:38:36;8.60;;;3.00;;
19285;SDS011;9776;50.798;6.430;2023-09-18T02:41:02;7.13;;;2.75;;
19285;SDS011;9776;50.798;6.430;2023-09-18T02:43:29;5.13;;;2.47;;
19285;SDS011;9776;50.798;6.430;2023-09-18T02:45:56;5.25;;;2.85;;
19285;SDS011;9776;50.798;6.430;2023-09-18T02:48:23;6.57;;;3.00;;
19285;SDS011;9776;50.798;6.430;2023-09-18T02:50:51;6.00;;;2.63;;
19285;SDS011;9776;50.798;6.430;2023-09-18T02:53:18;7.38;;;2.80;;
19285;SDS011;9776;50.798;6.430;2023-09-18T02:55:46;5.80;;;2.40;;
19285;SDS011;9776;50.798;6.430;2023-09-18T02:58:13;6.53;;;2.58;;
19285;SDS011;9776;50.798;6.430;2023-09-18T03:00:41;4.20;;;2.22;;
19285;SDS011;9776;50.798;6.430;2023-09-18T03:03:08;5.78;;;2.40;;
19285;SDS011;9776;50.798;6.430;2023-09-18T03:05:35;6.07;;;2.10;;
19285;SDS011;9776;50.798;6.430;2023-09-18T03:08:03;3.80;;;2.25;;
19285;SDS011;9776;50.798;6.430;2023-09-18T03:10:32;5.65;;;2.30;;
19285;SDS011;9776;50.798;6.430;2023-09-18T03:12:59;6.63;;;2.53;;
19285;SDS011;9776;50.798;6.430;2023-09-18T03:15:26;5.15;;;2.10;;
19285;SDS011;9776;50.798;6.430;2023-09-18T03:17:52;4.40;;;2.05;;
19285;SDS011;9776;50.798;6.430;2023-09-18T03:20:21;7.18;;;2.05;;
19285;SDS011;9776;50.798;6.430;2023-09-18T03:22:48;5.10;;;2.40;;
19285;SDS011;9776;50.798;6.430;2023-09-18T03:25:16;3.03;;;1.90;;
19285;SDS011;9776;50.798;6.430;2023-09-18T03:27:43;7.75;;;2.20;;
19285;SDS011;9776;50.798;6.430;2023-09-18T03:30:09;5.22;;;2.10;;
19285;SDS011;9776;50.798;6.430;2023-09-18T03:32:37;7.57;;;2.17;;
19285;SDS011;9776;50.798;6.430;2023-09-18T03:35:04;6.22;;;2.47;;
19285;SDS011;9776;50.798;6.430;2023-09-18T03:37:32;4.78;;;2.47;;
19285;SDS011;9776;50.798;6.430;2023-09-18T03:39:58;6.07;;;2.53;;
19285;SDS011;9776;50.798;6.430;2023-09-18T03:42:27;6.35;;;2.42;;
19285;SDS011;9776;50.798;6.430;2023-09-18T03:44:53;4.32;;;1.90;;
19285;SDS011;9776;50.798;6.430;2023-09-18T03:47:20;3.55;;;2.00;;
19285;SDS011;9776;50.798;6.430;2023-09-18T03:49:46;5.40;;;2.13;;
19285;SDS011;9776;50.798;6.430;2023-09-18T03:52:13;6.75;;;2.30;;
19285;SDS011;9776;50.798;6.430;2023-09-18T03:54:39;2.97;;;2.00;;
19285;SDS011;9776;50.798;6.430;2023-09-18T03:57:06;6.10;;;2.10;;
19285;SDS011;9776;50.798;6.430;2023-09-18T03:59:34;7.53;;;2.00;;
19285;SDS011;9776;50.798;6.430;2023-09-18T04:02:00;4.95;;;2.20;;
19285;SDS011;9776;50.798;6.430;2023-09-18T04:04:28;3.80;;;2.40;;
19285;SDS011;9776;50.798;6.430;2023-09-18T04:06:55;3.97;;;1.92;;
19285;SDS011;9776;50.798;6.430;2023-09-18T04:09:22;4.70;;;2.08;;
19285;SDS011;9776;50.798;6.430;2023-09-18T04:11:48;4.30;;;1.60;;
19285;SDS011;9776;50.798;6.430;2023-09-18T04:14:15;2.00;;;1.10;;
19285;SDS011;9776;50.798;6.430;2023-09-18T04:16:43;2.40;;;0.80;;
19285;SDS011;9776;50.798;6.430;2023-09-18T04:19:09;2.53;;;0.80;;
19285;SDS011;9776;50.798;6.430;2023-09-18T04:21:36;3.67;;;0.90;;
19285;SDS011;9776;50.798;6.430;2023-09-18T04:24:03;2.00;;;0.73;;
19285;SDS011;9776;50.798;6.430;2023-09-18T04:26:30;4.70;;;0.98;;
19285;SDS011;9776;50.798;6.430;2023-09-18T04:28:58;2.35;;;1.00;;
19285;SDS011;9776;50.798;6.430;2023-09-18T04:31:25;3.78;;;1.00;;
19285;SDS011;9776;50.798;6.430;2023-09-18T04:33:53;3.20;;;1.00;;
19285;SDS011;9776;50.798;6.430;2023-09-18T04:36:20;2.08;;;0.98;;
19285;SDS011;9776;50.798;6.430;2023-09-18T04:38:47;4.00;;;1.25;;
19285;SDS011;9776;50.798;6.430;2023-09-18T04:41:13;2.50;;;1.02;;
19285;SDS011;9776;50.798;6.430;2023-09-18T04:43:40;2.78;;;0.80;;
19285;SDS011;9776;50.798;6.430;2023-09-18T04:46:07;2.10;;;0.90;;
19285;SDS011;9776;50.798;6.430;2023-09-18T04:48:34;4.95;;;1.05;;
19285;SDS011;9776;50.798;6.430;2023-09-18T04:51:02;5.20;;;0.95;;
19285;SDS011;9776;50.798;6.430;2023-09-18T04:53:29;3.30;;;1.00;;
19285;SDS011;9776;50.798;6.430;2023-09-18T04:55:57;3.67;;;1.00;;
19285;SDS011;9776;50.798;6.430;2023-09-18T04:58:23;2.30;;;0.88;;
19285;SDS011;9776;50.798;6.430;2023-09-18T05:00:53;3.00;;;1.30;;
19285;SDS011;9776;50.798;6.430;2023-09-18T05:03:20;3.60;;;0.98;;
19285;SDS011;9776;50.798;6.430;2023-09-18T05:05:47;3.05;;;0.90;;
19285;SDS011;9776;50.798;6.430;2023-09-18T05:08:15;2.35;;;1.00;;
19285;SDS011;9776;50.798;6.430;2023-09-18T05:10:42;2.00;;;1.10;;
19285;SDS011;9776;50.798;6.430;2023-09-18T05:13:09;1.02;;;0.68;;
19285;SDS011;9776;50.798;6.430;2023-09-18T05:15:37;2.70;;;0.95;;
19285;SDS011;9776;50.798;6.430;2023-09-18T05:18:03;3.28;;;1.20;;
19285;SDS011;9776;50.798;6.430;2023-09-18T05:20:31;4.32;;;1.00;;
19285;SDS011;9776;50.798;6.430;2023-09-18T05:22:59;4.25;;;1.10;;
19285;SDS011;9776;50.798;6.430;2023-09-18T05:25:28;2.60;;;1.20;;
19285;SDS011;9776;50.798;6.430;2023-09-18T05:27:57;2.53;;;1.00;;
19285;SDS011;9776;50.798;6.430;2023-09-18T05:30:26;4.50;;;1.00;;
19285;SDS011;9776;50.798;6.430;2023-09-18T05:32:54;3.50;;;0.95;;
19285;SDS011;9776;50.798;6.430;2023-09-18T05:35:21;1.38;;;0.77;;
19285;SDS011;9776;50.798;6.430;2023-09-18T05:37:48;1.65;;;0.80;;
19285;SDS011;9776;50.798;6.430;2023-09-18T05:40:15;2.25;;;0.90;;
19285;SDS011;9776;50.798;6.430;2023-09-18T05:42:43;2.75;;;0.90;;
19285;SDS011;9776;50.798;6.430;2023-09-18T05:45:11;2.70;;;0.70;;
19285;SDS011;9776;50.798;6.430;2023-09-18T05:47:38;1.42;;;0.70;;
19285;SDS011;9776;50.798;6.430;2023-09-18T05:50:05;2.78;;;0.80;;
19285;SDS011;9776;50.798;6.430;2023-09-18T05:52:33;2.35;;;0.88;;
19285;SDS011;9776;50.798;6.430;2023-09-18T05:55:00;3.55;;;0.80;;
19285;SDS011;9776;50.798;6.430;2023-09-18T05:57:26;3.25;;;0.90;;
19285;SDS011;9776;50.798;6.430;2023-09-18T05:59:55;3.72;;;0.90;;
19285;SDS011;9776;50.798;6.430;2023-09-18T06:02:22;2.17;;;0.90;;
19285;SDS011;9776;50.798;6.430;2023-09-18T06:04:50;1.85;;;0.93;;
19285;SDS011;9776;50.798;6.430;2023-09-18T06:07:22;3.33;;;0.90;;
19285;SDS011;9776;50.798;6.430;2023-09-18T06:09:50;2.88;;;0.80;;
19285;SDS011;9776;50.798;6.430;2023-09-18T06:12:16;1.77;;;0.80;;
19285;SDS011;9776;50.798;6.430;2023-09-18T06:14:43;1.58;;;0.60;;
19285;SDS011;9776;50.798;6.430;2023-09-18T06:17:11;3.13;;;0.70;;
19285;SDS011;9776;50.798;6.430;2023-09-18T06:19:39;3.65;;;0.98;;
19285;SDS011;9776;50.798;6.430;2023-09-18T06:22:06;4.55;;;0.70;;
19285;SDS011;9776;50.798;6.430;2023-09-18T06:24:33;1.77;;;0.80;;
19285;SDS011;9776;50.798;6.430;2023-09-18T06:27:00;2.10;;;0.60;;
19285;SDS011;9776;50.798;6.430;2023-09-18T06:29:27;3.47;;;0.80;;
19285;SDS011;9776;50.798;6.430;2023-09-18T06:31:53;3.00;;;0.60;;
19285;SDS011;9776;50.798;6.430;2023-09-18T06:34:21;1.92;;;0.60;;
19285;SDS011;9776;50.798;6.430;2023-09-18T06:36:48;2.38;;;0.80;;
19285;SDS011;9776;50.798;6.430;2023-09-18T06:39:15;2.17;;;0.80;;
19285;SDS011;9776;50.798;6.430;2023-09-18T06:41:41;1.63;;;0.60;;
19285;SDS011;9776;50.798;6.430;2023-09-18T06:44:08;3.55;;;0.95;;
19285;SDS011;9776;50.798;6.430;2023-09-18T06:46:35;1.55;;;0.82;;
19285;SDS011;9776;50.798;6.430;2023-09-18T06:49:02;2.72;;;0.80;;
19285;SDS011;9776;50.798;6.430;2023-09-18T06:51:30;1.98;;;0.80;;
19285;SDS011;9776;50.798;6.430;2023-09-18T06:53:56;2.75;;;0.70;;
19285;SDS011;9776;50.798;6.430;2023-09-18T06:56:23;1.27;;;0.60;;
19285;SDS011;9776;50.798;6.430;2023-09-18T06:58:50;2.58;;;0.77;;
19285;SDS011;9776;50.798;6.430;2023-09-18T07:01:17;1.75;;;0.65;;
19285;SDS011;9776;50.798;6.430;2023-09-18T07:03:44;3.13;;;0.70;;
19285;SDS011;9776;50.798;6.430;2023-09-18T07:06:12;1.90;;;0.68;;
19285;SDS011;9776;50.798;6.430;2023-09-18T07:08:42;1.50;;;0.70;;
19285;SDS011;9776;50.798;6.430;2023-09-18T07:11:09;1.98;;;0.77;;
19285;SDS011;9776;50.798;6.430;2023-09-18T07:13:37;1.25;;;0.75;;
19285;SDS011;9776;50.798;6.430;2023-09-18T07:16:03;2.17;;;0.90;;
19285;SDS011;9776;50.798;6.430;2023-09-18T07:18:30;1.08;;;0.60;;
19285;SDS011;9776;50.798;6.430;2023-09-18T07:20:57;3.00;;;0.75;;
19285;SDS011;9776;50.798;6.430;2023-09-18T07:23:23;1.30;;;0.50;;
19285;SDS011;9776;50.798;6.430;2023-09-18T07:25:51;1.63;;;0.77;;
19285;SDS011;9776;50.798;6.430;2023-09-18T07:28:18;3.72;;;0.75;;
19285;SDS011;9776;50.798;6.430;2023-09-18T07:30:45;1.33;;;0.70;;
19285;SDS011;9776;50.798;6.430;2023-09-18T07:33:12;1.25;;;0.70;;
19285;SDS011;9776;50.798;6.430;2023-09-18T07:35:41;2.00;;;0.70;;
19285;SDS011;9776;50.798;6.430;2023-09-18T07:38:08;2.28;;;0.77;;
19285;SDS011;9776;50.798;6.430;2023-09-18T07:40:35;2.03;;;0.82;;
19285;SDS011;9776;50.798;6.430;2023-09-18T07:43:03;1.23;;;0.70;;
19285;SDS011;9776;50.798;6.430;2023-09-18T07:45:29;3.20;;;1.00;;
19285;SDS011;9776;50.798;6.430;2023-09-18T07:47:56;2.20;;;0.77;;
19285;SDS011;9776;50.798;6.430;2023-09-18T07:50:22;2.83;;;0.75;;
19285;SDS011;9776;50.798;6.430;2023-09-18T07:52:49;2.17;;;0.70;;
19285;SDS011;9776;50.798;6.430;2023-09-18T07:55:16;1.63;;;0.70;;
19285;SDS011;9776;50.798;6.430;2023-09-18T07:57:43;2.33;;;0.57;;
19285;SDS011;9776;50.798;6.430;2023-09-18T08:00:12;3.20;;;0.70;;
19285;SDS011;9776;50.798;6.430;2023-09-18T08:02:40;2.55;;;0.55;;
19285;SDS011;9776;50.798;6.430;2023-09-18T08:05:08;1.25;;;0.80;;
19285;SDS011;9776;50.798;6.430;2023-09-18T08:07:35;2.50;;;0.60;;
19285;SDS011;9776;50.798;6.430;2023-09-18T08:10:02;2.42;;;0.57;;
19285;SDS011;9776;50.798;6.430;2023-09-18T08:12:33;1.98;;;0.73;;
19285;SDS011;9776;50.798;6.430;2023-09-18T08:15:00;1.20;;;0.70;;
19285;SDS011;9776;50.798;6.430;2023-09-18T08:17:29;3.22;;;0.70;;
19285;SDS011;9776;50.798;6.430;2023-09-18T08:19:55;1.70;;;0.73;;
19285;SDS011;9776;50.798;6.430;2023-09-18T08:22:23;2.10;;;0.70;;
19285;SDS011;9776;50.798;6.430;2023-09-18T08:24:50;1.98;;;0.93;;
19285;SDS011;9776;50.798;6.430;2023-09-18T08:27:18;2.17;;;0.80;;
19285;SDS011;9776;50.798;6.430;2023-09-18T08:29:45;2.33;;;0.82;;
19285;SDS011;9776;50.798;6.430;2023-09-18T08:32:12;2.60;;;1.00;;
19285;SDS011;9776;50.798;6.430;2023-09-18T08:34:40;1.40;;;0.80;;
19285;SDS011;9776;50.798;6.430;2023-09-18T08:37:06;1.70;;;0.65;;
19285;SDS011;9776;50.798;6.430;2023-09-18T08:39:34;2.05;;;0.80;;
19285;SDS011;9776;50.798;6.430;2023-09-18T08:42:03;3.03;;;1.10;;
19285;SDS011;9776;50.798;6.430;2023-09-18T08:44:30;2.60;;;0.90;;
19285;SDS011;9776;50.798;6.430;2023-09-18T08:46:57;2.78;;;0.70;;
19285;SDS011;9776;50.798;6.430;2023-09-18T08:49:24;2.67;;;0.80;;
19285;SDS011;9776;50.798;6.430;2023-09-18T08:51:54;1.35;;;0.70;;
19285;SDS011;9776;50.798;6.430;2023-09-18T08:54:22;2.50;;;0.80;;
19285;SDS011;9776;50.798;6.430;2023-09-18T08:56:50;2.35;;;0.95;;
19285;SDS011;9776;50.798;6.430;2023-09-18T08:59:16;4.40;;;0.85;;
19285;SDS011;9776;50.798;6.430;2023-09-18T09:01:45;2.03;;;0.80;;
19285;SDS011;9776;50.798;6.430;2023-09-18T09:04:12;2.63;;;0.70;;
19285;SDS011;9776;50.798;6.430;2023-09-18T09:06:39;3.15;;;0.80;;
19285;SDS011;9776;50.798;6.430;2023-09-18T09:09:07;2.83;;;1.02;;
19285;SDS011;9776;50.798;6.430;2023-09-18T09:11:33;1.50;;;0.75;;
19285;SDS011;9776;50.798;6.430;2023-09-18T09:14:09;1.83;;;0.70;;
19285;SDS011;9776;50.798;6.430;2023-09-18T09:16:41;2.63;;;0.80;;
19285;SDS011;9776;50.798;6.430;2023-09-18T09:19:12;1.80;;;0.80;;
19285;SDS011;9776;50.798;6.430;2023-09-18T09:21:39;1.85;;;0.70;;
19285;SDS011;9776;50.798;6.430;2023-09-18T09:24:09;2.38;;;0.90;;
19285;SDS011;9776;50.798;6.430;2023-09-18T09:26:39;1.20;;;0.50;;
19285;SDS011;9776;50.798;6.430;2023-09-18T09:29:15;4.90;;;0.90;;
19285;SDS011;9776;50.798;6.430;2023-09-18T09:31:44;3.55;;;0.82;;
19285;SDS011;9776;50.798;6.430;2023-09-18T09:34:11;2.40;;;0.85;;
19285;SDS011;9776;50.798;6.430;2023-09-18T09:36:50;1.25;;;0.65;;
19285;SDS011;9776;50.798;6.430;2023-09-18T09:39:20;1.77;;;0.90;;
19285;SDS011;9776;50.798;6.430;2023-09-18T09:41:49;2.60;;;0.80;;
19285;SDS011;9776;50.798;6.430;2023-09-18T09:44:17;1.20;;;0.70;;
19285;SDS011;9776;50.798;6.430;2023-09-18T09:46:47;1.85;;;0.65;;
19285;SDS011;9776;50.798;6.430;2023-09-18T09:49:14;2.15;;;0.70;;
19285;SDS011;9776;50.798;6.430;2023-09-18T09:51:42;2.13;;;0.80;;
19285;SDS011;9776;50.798;6.430;2023-09-18T09:54:09;1.55;;;0.70;;
19285;SDS011;9776;50.798;6.430;2023-09-18T09:56:42;3.15;;;0.63;;
19285;SDS011;9776;50.798;6.430;2023-09-18T09:59:10;1.38;;;0.77;;
19285;SDS011;9776;50.798;6.430;2023-09-18T10:01:39;2.38;;;0.80;;
19285;SDS011;9776;50.798;6.430;2023-09-18T10:04:08;2.03;;;0.70;;
19285;SDS011;9776;50.798;6.430;2023-09-18T10:06:37;2.53;;;0.70;;
19285;SDS011;9776;50.798;6.430;2023-09-18T10:09:08;1.45;;;0.55;;
19285;SDS011;9776;50.798;6.430;2023-09-18T10:11:40;1.67;;;0.60;;
19285;SDS011;9776;50.798;6.430;2023-09-18T10:14:12;2.13;;;0.77;;
19285;SDS011;9776;50.798;6.430;2023-09-18T10:16:41;1.00;;;0.52;;
19285;SDS011;9776;50.798;6.430;2023-09-18T10:19:17;1.38;;;0.80;;
19285;SDS011;9776;50.798;6.430;2023-09-18T10:22:00;2.47;;;0.60;;
19285;SDS011;9776;50.798;6.430;2023-09-18T10:24:36;3.40;;;0.75;;
19285;SDS011;9776;50.798;6.430;2023-09-18T10:27:07;1.52;;;0.70;;
19285;SDS011;9776;50.798;6.430;2023-09-18T10:29:36;2.72;;;1.20;;
19285;SDS011;9776;50.798;6.430;2023-09-18T10:32:04;3.65;;;1.00;;
19285;SDS011;9776;50.798;6.430;2023-09-18T10:34:33;1.73;;;0.73;;
19285;SDS011;9776;50.798;6.430;2023-09-18T10:37:01;1.40;;;0.70;;
19285;SDS011;9776;50.798;6.430;2023-09-18T10:39:31;2.10;;;0.80;;
19285;SDS011;9776;50.798;6.430;2023-09-18T10:42:02;1.23;;;0.77;;
19285;SDS011;9776;50.798;6.430;2023-09-18T10:44:33;1.40;;;0.65;;
19285;SDS011;9776;50.798;6.430;2023-09-18T10:47:00;1.90;;;0.70;;
19285;SDS011;9776;50.798;6.430;2023-09-18T10:49:30;1.75;;;0.70;;
19285;SDS011;9776;50.798;6.430;2023-09-18T10:51:57;2.15;;;0.68;;
19285;SDS011;9776;50.798;6.430;2023-09-18T10:54:26;1.20;;;0.70;;
19285;SDS011;9776;50.798;6.430;2023-09-18T10:56:55;1.15;;;0.50;;
19285;SDS011;9776;50.798;6.430;2023-09-18T10:59:23;1.65;;;0.63;;
19285;SDS011;9776;50.798;6.430;2023-09-18T11:01:51;2.13;;;0.80;;
19285;SDS011;9776;50.798;6.430;2023-09-18T11:04:19;0.90;;;0.60;;
19285;SDS011;9776;50.798;6.430;2023-09-18T11:07:02;2.85;;;0.80;;
19285;SDS011;9776;50.798;6.430;2023-09-18T11:09:30;0.90;;;0.60;;
19285;SDS011;9776;50.798;6.430;2023-09-18T11:12:02;2.50;;;0.90;;
19285;SDS011;9776;50.798;6.430;2023-09-18T11:17:32;2.33;;;0.63;;
19285;SDS011;9776;50.798;6.430;2023-09-18T11:20:03;1.85;;;0.90;;
19285;SDS011;9776;50.798;6.430;2023-09-18T11:22:34;1.73;;;0.60;;
19285;SDS011;9776;50.798;6.430;2023-09-18T11:27:56;0.95;;;0.50;;
19285;SDS011;9776;50.798;6.430;2023-09-18T11:30:23;1.10;;;0.57;;
19285;SDS011;9776;50.798;6.430;2023-09-18T11:32:51;1.77;;;0.70;;
19285;SDS011;9776;50.798;6.430;2023-09-18T11:35:18;1.45;;;0.80;;
19285;SDS011;9776;50.798;6.430;2023-09-18T11:37:45;2.30;;;0.68;;
19285;SDS011;9776;50.798;6.430;2023-09-18T11:40:28;2.72;;;0.70;;
19285;SDS011;9776;50.798;6.430;2023-09-18T11:45:56;2.85;;;0.70;;
19285;SDS011;9776;50.798;6.430;2023-09-18T11:48:26;1.90;;;0.77;;
19285;SDS011;9776;50.798;6.430;2023-09-18T11:50:54;1.67;;;0.55;;
19285;SDS011;9776;50.798;6.430;2023-09-18T11:53:23;2.13;;;0.75;;
19285;SDS011;9776;50.798;6.430;2023-09-18T11:55:51;2.13;;;0.52;;
19285;SDS011;9776;50.798;6.430;2023-09-18T11:58:18;2.55;;;0.80;;
19285;SDS011;9776;50.798;6.430;2023-09-18T12:00:48;3.50;;;0.70;;
19285;SDS011;9776;50.798;6.430;2023-09-18T12:03:16;0.98;;;0.63;;
19285;SDS011;9776;50.798;6.430;2023-09-18T12:05:57;1.80;;;0.70;;
19285;SDS011;9776;50.798;6.430;2023-09-18T12:08:25;2.28;;;0.80;;
19285;SDS011;9776;50.798;6.430;2023-09-18T12:10:55;1.35;;;0.73;;
19285;SDS011;9776;50.798;6.430;2023-09-18T12:13:23;1.42;;;0.60;;
19285;SDS011;9776;50.798;6.430;2023-09-18T12:15:55;1.52;;;0.60;;
19285;SDS011;9776;50.798;6.430;2023-09-18T12:18:24;2.35;;;0.65;;
19285;SDS011;9776;50.798;6.430;2023-09-18T12:20:53;2.47;;;0.70;;
19285;SDS011;9776;50.798;6.430;2023-09-18T12:23:22;1.52;;;0.77;;
19285;SDS011;9776;50.798;6.430;2023-09-18T12:25:50;1.48;;;0.70;;
19285;SDS011;9776;50.798;6.430;2023-09-18T12:28:23;0.70;;;0.50;;
19285;SDS011;9776;50.798;6.430;2023-09-18T12:30:53;1.90;;;0.70;;
19285;SDS011;9776;50.798;6.430;2023-09-18T12:33:21;2.25;;;0.80;;
19285;SDS011;9776;50.798;6.430;2023-09-18T12:35:49;2.35;;;0.80;;
19285;SDS011;9776;50.798;6.430;2023-09-18T12:38:16;2.88;;;0.80;;
19285;SDS011;9776;50.798;6.430;2023-09-18T12:40:45;2.08;;;0.80;;
19285;SDS011;9776;50.798;6.430;2023-09-18T12:43:12;1.13;;;0.60;;
19285;SDS011;9776;50.798;6.430;2023-09-18T12:45:41;1.17;;;0.65;;
19285;SDS011;9776;50.798;6.430;2023-09-18T12:48:09;2.15;;;0.90;;
19285;SDS011;9776;50.798;6.430;2023-09-18T12:50:37;2.40;;;0.80;;
